Time;durP1;ratioP1;P1;durP2;ratioP2;P2;SDS_P1;SDS_P2;PMS_P1;PMS_P2;Temp;Humidity;BMP_temperature;BMP_pressure;BME280_temperature;BME280_humidity;BME280_pressure;Samples;Min_cycle;Max_cycle;Signal;HPM_P1;HPM_P2
2022/08/04 00:00:22;;;;;;;10.30;3.85;;;24.60;93.30;;;;;;5031533;28;20041;-73
2022/08/04 00:03:22;;;;;;;40.88;26.42;;;24.60;93.00;;;;;;5031606;28;20017;-73
2022/08/04 00:05:57;;;;;;;10.63;6.82;;;24.60;93.20;;;;;;5031639;28;20210;-74
2022/08/04 00:08:37;;;;;;;9.45;4.00;;;24.70;93.00;;;;;;5031575;28;20161;-73
2022/08/04 00:11:08;;;;;;;10.52;4.18;;;24.70;93.10;;;;;;5031602;28;20032;-72
2022/08/04 00:13:38;;;;;;;7.97;4.00;;;24.70;92.90;;;;;;5032059;28;20017;-73
2022/08/04 00:16:07;;;;;;;8.68;3.67;;;24.70;92.90;;;;;;5031507;28;20041;-73
2022/08/04 00:18:51;;;;;;;8.70;4.22;;;24.70;93.30;;;;;;5031453;28;20048;-74
2022/08/04 00:21:21;;;;;;;8.82;3.78;;;24.60;93.30;;;;;;5031564;28;20371;-74
2022/08/04 00:23:48;;;;;;;9.20;3.67;;;24.60;93.40;;;;;;5030659;28;20086;-71
2022/08/04 00:26:16;;;;;;;7.45;3.72;;;24.60;93.70;;;;;;5031643;28;20033;-73
2022/08/04 00:28:42;;;;;;;6.95;3.47;;;24.60;93.80;;;;;;5031500;28;20025;-73
2022/08/04 00:31:14;;;;;;;6.38;3.67;;;24.60;94.10;;;;;;5031352;28;20040;-73
2022/08/04 00:33:43;;;;;;;8.63;3.92;;;24.50;94.00;;;;;;5031179;28;20533;-73
2022/08/04 00:36:13;;;;;;;7.07;4.03;;;24.50;94.10;;;;;;5030798;28;20253;-73
2022/08/04 00:38:42;;;;;;;6.78;3.22;;;24.50;94.30;;;;;;5031166;28;20108;-73
2022/08/04 00:41:23;;;;;;;10.35;4.15;;;24.40;94.10;;;;;;5031307;28;20033;-73
2022/08/04 00:44:06;;;;;;;10.70;4.90;;;24.40;94.10;;;;;;5031713;28;20017;-74
2022/08/04 00:46:56;;;;;;;9.18;3.53;;;24.40;94.40;;;;;;5031195;28;20044;-73
2022/08/04 00:49:22;;;;;;;9.38;3.55;;;24.30;94.50;;;;;;5031347;28;20045;-74
2022/08/04 00:52:12;;;;;;;7.70;3.78;;;24.30;94.20;;;;;;5031406;28;20077;-74
2022/08/04 00:55:03;;;;;;;10.65;4.10;;;24.20;94.30;;;;;;5030013;28;20095;-73
2022/08/04 00:57:59;;;;;;;5.93;4.05;;;24.20;94.20;;;;;;5030973;28;20128;-73
2022/08/04 01:00:26;;;;;;;7.20;4.30;;;24.10;94.50;;;;;;5030909;28;20056;-73
2022/08/04 01:03:21;;;;;;;7.53;3.88;;;24.10;94.60;;;;;;5030629;28;20535;-73
2022/08/04 01:06:10;;;;;;;9.02;3.90;;;24.00;94.80;;;;;;5021367;28;20371;-73
2022/08/04 01:08:47;;;;;;;8.30;4.20;;;24.00;95.00;;;;;;5030988;28;20040;-75
2022/08/04 01:11:37;;;;;;;7.78;4.07;;;24.00;94.80;;;;;;5030829;28;20028;-74
2022/08/04 01:14:12;;;;;;;10.80;4.25;;;23.90;95.20;;;;;;5030476;28;20030;-72
2022/08/04 01:16:51;;;;;;;8.85;4.47;;;23.90;94.90;;;;;;5031104;28;20104;-74
2022/08/04 01:19:45;;;;;;;9.60;3.78;;;23.80;95.10;;;;;;5030683;28;20037;-73
2022/08/04 01:22:31;;;;;;;11.55;3.90;;;23.70;95.30;;;;;;5030573;28;20113;-73
2022/08/04 01:24:59;;;;;;;10.93;4.30;;;23.70;95.10;;;;;;5030565;28;20052;-74
2022/08/04 01:27:46;;;;;;;8.82;3.90;;;23.60;95.60;;;;;;5030324;28;20042;-72
2022/08/04 01:30:12;;;;;;;8.02;3.72;;;23.60;95.50;;;;;;5030362;28;20033;-73
2022/08/04 01:32:47;;;;;;;8.40;3.75;;;23.60;95.80;;;;;;5030254;28;20124;-73
2022/08/04 01:35:24;;;;;;;5.63;3.70;;;23.60;95.60;;;;;;5026684;28;20104;-73
2022/08/04 01:37:57;;;;;;;9.52;4.05;;;23.50;96.00;;;;;;5010929;28;20026;-73
2022/08/04 01:40:26;;;;;;;8.95;3.40;;;23.50;96.10;;;;;;5010195;28;20057;-73
2022/08/04 01:42:53;;;;;;;7.10;3.55;;;23.50;95.70;;;;;;5010342;28;20033;-73
2022/08/04 01:45:22;;;;;;;10.03;3.83;;;23.50;96.20;;;;;;5010424;28;20460;-73
2022/08/04 01:47:50;;;;;;;7.35;3.90;;;23.50;96.10;;;;;;5010445;28;20088;-74
2022/08/04 01:50:16;;;;;;;5.57;3.70;;;23.50;96.40;;;;;;5010384;28;20403;-75
2022/08/04 01:52:44;;;;;;;5.97;3.10;;;23.40;96.40;;;;;;5010835;28;20034;-74
2022/08/04 01:55:11;;;;;;;10.05;4.05;;;23.40;96.10;;;;;;5009183;28;20052;-71
2022/08/04 01:57:42;;;;;;;8.48;3.85;;;23.40;96.20;;;;;;5010173;28;20046;-73
2022/08/04 02:00:10;;;;;;;7.45;4.05;;;23.40;96.40;;;;;;5010294;28;20128;-73
2022/08/04 02:02:36;;;;;;;7.40;3.47;;;23.30;96.90;;;;;;5010528;28;20110;-74
2022/08/04 02:05:01;;;;;;;7.00;3.85;;;23.30;96.70;;;;;;5010651;28;20022;-73
2022/08/04 02:07:54;;;;;;;8.57;3.72;;;23.30;96.90;;;;;;5010762;28;20080;-74
2022/08/04 02:10:52;;;;;;;7.57;3.83;;;23.30;96.70;;;;;;5010188;28;20408;-74
2022/08/04 02:13:34;;;;;;;9.25;3.83;;;23.20;97.00;;;;;;5009123;28;20037;-74
2022/08/04 02:16:32;;;;;;;8.40;4.00;;;23.20;97.20;;;;;;5009072;28;20053;-74
2022/08/04 02:19:04;;;;;;;5.45;3.30;;;23.10;97.00;;;;;;5009898;28;20124;-73
2022/08/04 02:21:31;;;;;;;5.95;3.90;;;23.20;96.90;;;;;;5010176;28;20042;-75
2022/08/04 02:24:11;;;;;;;5.53;3.38;;;23.10;97.20;;;;;;5008246;28;20201;-74
2022/08/04 02:26:41;;;;;;;9.98;3.95;;;23.10;97.10;;;;;;5010320;28;20030;-74
2022/08/04 02:29:14;;;;;;;7.28;3.70;;;23.20;97.40;;;;;;5010010;28;20087;-73
2022/08/04 02:31:58;;;;;;;10.05;3.67;;;23.20;97.30;;;;;;5010872;28;20074;-73
2022/08/04 02:34:26;;;;;;;10.25;4.15;;;23.20;97.20;;;;;;5010000;28;20064;-73
2022/08/04 02:36:54;;;;;;;5.18;3.42;;;23.20;97.40;;;;;;5010099;28;20042;-73
2022/08/04 02:39:21;;;;;;;5.22;3.50;;;23.20;97.40;;;;;;5009803;28;20030;-73
2022/08/04 02:41:48;;;;;;;7.60;4.00;;;23.20;97.10;;;;;;5010044;28;20197;-73
2022/08/04 02:44:21;;;;;;;11.73;3.95;;;23.20;97.40;;;;;;5008497;28;20026;-73
2022/08/04 02:46:49;;;;;;;9.65;3.80;;;23.20;97.10;;;;;;5010856;28;20026;-73
2022/08/04 02:49:17;;;;;;;10.20;3.97;;;23.20;97.60;;;;;;5013580;28;20271;-72
2022/08/04 02:51:46;;;;;;;9.55;4.10;;;23.20;97.30;;;;;;5013004;28;20034;-73
2022/08/04 02:54:16;;;;;;;11.88;4.53;;;23.20;97.30;;;;;;5012303;28;20567;-73
2022/08/04 02:56:44;;;;;;;6.93;3.80;;;23.20;97.30;;;;;;5011853;28;20057;-73
2022/08/04 02:59:11;;;;;;;10.20;3.70;;;23.20;97.70;;;;;;5013233;28;20084;-72
2022/08/04 03:01:38;;;;;;;4.25;3.63;;;23.20;97.70;;;;;;5013386;28;20026;-72
2022/08/04 03:04:11;;;;;;;7.80;3.70;;;23.20;97.40;;;;;;5012071;28;20022;-72
2022/08/04 03:06:51;;;;;;;12.07;3.80;;;23.20;97.60;;;;;;5013068;28;20467;-73
2022/08/04 03:09:25;;;;;;;5.75;3.70;;;23.20;97.60;;;;;;5013072;28;20034;-73
2022/08/04 03:12:20;;;;;;;5.32;3.47;;;23.20;97.30;;;;;;5012870;28;20141;-73
2022/08/04 03:15:10;;;;;;;10.57;3.72;;;23.10;97.40;;;;;;5013057;28;20091;-73
2022/08/04 03:17:58;;;;;;;6.70;3.92;;;23.10;97.60;;;;;;5012787;28;20352;-72
2022/08/04 03:20:48;;;;;;;10.20;4.25;;;23.00;97.70;;;;;;5012821;28;20373;-73
2022/08/04 03:23:51;;;;;;;7.13;3.85;;;23.00;97.70;;;;;;5012568;28;20360;-73
2022/08/04 03:26:36;;;;;;;13.25;4.10;;;23.00;97.70;;;;;;5012774;28;20013;-74
2022/08/04 03:29:34;;;;;;;15.60;4.25;;;23.00;97.80;;;;;;5012876;28;20029;-72
2022/08/04 03:32:11;;;;;;;11.43;4.25;;;22.90;97.80;;;;;;5013091;28;20033;-73
2022/08/04 03:35:17;;;;;;;13.93;3.72;;;22.80;97.90;;;;;;5011736;28;20364;-73
2022/08/04 03:38:08;;;;;;;11.43;4.25;;;22.80;97.80;;;;;;5011574;28;20046;-73
2022/08/04 03:40:52;;;;;;;11.32;4.30;;;22.80;98.00;;;;;;5012707;28;20045;-73
2022/08/04 03:43:46;;;;;;;10.80;3.85;;;22.80;98.10;;;;;;5012784;28;20378;-73
2022/08/04 03:46:37;;;;;;;7.63;3.75;;;22.70;97.90;;;;;;5012530;28;20064;-73
2022/08/04 03:49:24;;;;;;;11.43;3.95;;;22.70;98.00;;;;;;5012585;28;20460;-73
2022/08/04 03:53:22;;;;;;;9.32;3.25;;;22.70;98.30;;;;;;5012271;28;20479;-73
2022/08/04 03:55:54;;;;;;;8.85;4.43;;;22.70;98.10;;;;;;5015572;28;20038;-73
2022/08/04 03:58:58;;;;;;;11.05;4.65;;;22.60;98.20;;;;;;5011284;28;20068;-72
2022/08/04 04:01:29;;;;;;;12.20;3.40;;;22.70;98.10;;;;;;5012086;28;20045;-72
2022/08/04 04:04:20;;;;;;;10.82;3.13;;;22.60;98.40;;;;;;5012417;28;20136;-73
2022/08/04 04:07:07;;;;;;;8.68;4.55;;;22.60;98.40;;;;;;5011993;28;20527;-73
2022/08/04 04:10:06;;;;;;;8.07;3.90;;;22.50;98.50;;;;;;5011790;28;20508;-73
2022/08/04 04:13:10;;;;;;;12.95;4.30;;;22.50;98.60;;;;;;5011834;28;20030;-73
2022/08/04 04:15:52;;;;;;;10.65;4.10;;;22.40;98.60;;;;;;5011695;28;20048;-73
2022/08/04 04:18:39;;;;;;;11.73;4.30;;;22.40;98.70;;;;;;5011738;28;20026;-73
2022/08/04 04:21:27;;;;;;;14.97;4.33;;;22.40;98.80;;;;;;5011645;28;20128;-72
2022/08/04 04:24:02;;;;;;;7.18;4.32;;;22.40;98.70;;;;;;5011593;28;20341;-72
2022/08/04 04:26:37;;;;;;;9.65;4.00;;;22.40;98.80;;;;;;5011853;28;20037;-74
2022/08/04 04:29:24;;;;;;;9.45;4.07;;;22.40;98.90;;;;;;5011617;28;20458;-73
2022/08/04 04:32:08;;;;;;;8.10;4.00;;;22.40;98.80;;;;;;5012105;28;20127;-74
2022/08/04 04:35:01;;;;;;;11.93;4.07;;;22.30;99.00;;;;;;5011719;28;20034;-75
2022/08/04 04:37:47;;;;;;;9.38;3.90;;;22.40;98.90;;;;;;5010636;28;20121;-74
2022/08/04 04:40:38;;;;;;;8.73;3.80;;;22.30;98.90;;;;;;5010984;28;20091;-73
2022/08/04 04:43:10;;;;;;;11.82;4.38;;;22.40;98.80;;;;;;5011488;28;20099;-74
2022/08/04 04:45:45;;;;;;;9.93;4.40;;;22.40;99.10;;;;;;5011394;28;20116;-74
2022/08/04 04:48:40;;;;;;;16.55;4.55;;;22.40;98.90;;;;;;5011292;28;20030;-73
2022/08/04 04:51:27;;;;;;;10.73;3.70;;;22.40;99.30;;;;;;5011176;28;20057;-73
2022/08/04 04:53:53;;;;;;;12.15;4.28;;;22.40;99.20;;;;;;5011097;28;20030;-72
2022/08/04 04:56:53;;;;;;;8.82;4.15;;;22.40;99.30;;;;;;5010813;28;20042;-73
2022/08/04 04:59:26;;;;;;;17.13;4.20;;;22.40;99.10;;;;;;5011194;28;20022;-73
2022/08/04 05:02:14;;;;;;;8.30;4.53;;;22.50;99.20;;;;;;5011287;28;20026;-73
2022/08/04 05:04:39;;;;;;;8.68;4.53;;;22.50;99.10;;;;;;5010123;28;20049;-73
2022/08/04 05:07:27;;;;;;;8.50;4.20;;;22.50;99.10;;;;;;5010971;28;20034;-74
2022/08/04 05:10:13;;;;;;;10.15;3.95;;;22.60;99.20;;;;;;5010755;28;20519;-73
2022/08/04 05:12:56;;;;;;;11.95;4.68;;;22.60;99.30;;;;;;5010835;28;20045;-73
2022/08/04 05:15:29;;;;;;;12.45;4.47;;;22.60;99.40;;;;;;5010764;28;20034;-73
2022/08/04 05:17:57;;;;;;;8.80;3.80;;;22.60;99.30;;;;;;5010855;28;20030;-77
2022/08/04 05:20:37;;;;;;;9.93;4.85;;;22.70;99.30;;;;;;5009603;28;20322;-76
2022/08/04 05:23:29;;;;;;;11.10;4.68;;;22.70;99.60;;;;;;5009902;28;20030;-78
2022/08/04 05:26:08;;;;;;;11.07;3.78;;;22.70;99.70;;;;;;5011550;28;20040;-76
2022/08/04 05:28:40;;;;;;;7.65;3.78;;;22.70;99.30;;;;;;5010825;28;20468;-79
2022/08/04 05:31:20;;;;;;;7.90;3.58;;;22.70;99.50;;;;;;5011038;28;20329;-79
2022/08/04 05:33:59;;;;;;;5.90;3.70;;;22.70;99.30;;;;;;5010020;28;20038;-80
2022/08/04 05:36:42;;;;;;;13.32;4.75;;;22.70;99.30;;;;;;5011409;28;20106;-79
2022/08/04 05:39:24;;;;;;;9.30;4.13;;;22.80;99.30;;;;;;5010871;28;20433;-77
2022/08/04 05:41:50;;;;;;;11.43;4.70;;;22.80;99.10;;;;;;5009913;28;20120;-81
2022/08/04 05:44:17;;;;;;;9.27;4.00;;;22.80;99.30;;;;;;5010469;28;20053;-86
2022/08/04 05:46:47;;;;;;;10.23;4.03;;;22.80;99.50;;;;;;5010620;28;20026;-84
2022/08/04 05:49:13;;;;;;;13.23;4.07;;;22.80;99.70;;;;;;5010605;28;20293;-73
2022/08/04 05:51:40;;;;;;;10.00;3.85;;;22.80;99.60;;;;;;5009331;28;20037;-74
2022/08/04 05:54:08;;;;;;;12.40;4.53;;;22.80;99.60;;;;;;5010323;28;20475;-74
2022/08/04 05:56:35;;;;;;;10.55;3.70;;;22.80;99.70;;;;;;5010043;28;20038;-71
2022/08/04 05:59:02;;;;;;;7.05;4.45;;;23.00;99.70;;;;;;5010541;28;20113;-71
2022/08/04 06:01:29;;;;;;;12.80;4.43;;;22.90;99.70;;;;;;5009250;28;20046;-72
2022/08/04 06:03:59;;;;;;;10.00;4.47;;;23.00;99.30;;;;;;5010607;28;20518;-73
2022/08/04 06:06:25;;;;;;;7.00;3.80;;;23.10;99.30;;;;;;5010337;28;20073;-69
2022/08/04 06:08:51;;;;;;;6.25;3.60;;;23.20;99.20;;;;;;5010307;28;20029;-73
2022/08/04 06:11:19;;;;;;;8.15;4.25;;;23.30;99.10;;;;;;5010131;28;20041;-71
2022/08/04 06:13:56;;;;;;;10.18;4.10;;;23.40;99.10;;;;;;5010593;28;20050;-73
2022/08/04 06:16:24;;;;;;;9.10;4.77;;;23.40;99.00;;;;;;5010233;28;20145;-73
2022/08/04 06:18:52;;;;;;;10.20;4.50;;;23.50;98.60;;;;;;5009922;28;20444;-73
2022/08/04 06:21:19;;;;;;;;;;;23.60;98.60;;;;;;5010146;28;20065;-75
2022/08/04 06:23:45;;;;;;;10.55;4.20;;;23.60;98.40;;;;;;5013912;28;19913;-74
2022/08/04 06:26:18;;;;;;;6.10;3.35;;;23.70;98.30;;;;;;5012757;28;20033;-73
2022/08/04 06:28:50;;;;;;;11.30;4.00;;;23.80;98.30;;;;;;5014758;28;20022;-72
2022/08/04 06:34:05;;;;;;;11.38;3.60;;;24.00;98.10;;;;;;5014259;28;20356;-73
2022/08/04 06:36:31;;;;;;;10.70;3.70;;;24.00;97.90;;;;;;5013747;28;20042;-73
2022/08/04 06:38:59;;;;;;;8.60;3.63;;;24.10;97.60;;;;;;5013791;28;20042;-78
2022/08/04 06:41:28;;;;;;;10.07;4.22;;;24.10;97.20;;;;;;5012771;28;20120;-78
2022/08/04 06:43:58;;;;;;;11.15;3.65;;;24.20;97.30;;;;;;5013541;28;20053;-77
2022/08/04 06:46:24;;;;;;;17.85;5.53;;;24.30;97.30;;;;;;5013767;28;20053;-77
2022/08/04 06:48:50;;;;;;;16.33;5.13;;;24.40;97.20;;;;;;5013839;28;20045;-75
2022/08/04 06:51:20;;;;;;;40.95;22.60;;;24.50;97.00;;;;;;5013941;28;20041;-80
2022/08/04 06:53:46;;;;;;;34.20;19.00;;;24.70;96.70;;;;;;5014166;28;20040;-84
2022/08/04 06:56:17;;;;;;;33.47;18.05;;;24.80;96.50;;;;;;5014384;28;20423;-92
2022/08/04 06:58:45;;;;;;;12.15;4.20;;;24.90;96.40;;;;;;5014789;28;20084;-78
2022/08/04 07:01:16;;;;;;;10.90;4.40;;;25.00;96.30;;;;;;5013143;28;20030;-80
2022/08/04 07:03:43;;;;;;;10.80;5.05;;;25.10;96.00;;;;;;5014671;28;20509;-77
2022/08/04 07:06:08;;;;;;;13.25;4.07;;;25.20;95.90;;;;;;5014014;28;20033;-79
2022/08/04 07:08:35;;;;;;;17.05;3.47;;;25.30;95.80;;;;;;5014068;28;20108;-78
2022/08/04 07:11:04;;;;;;;9.07;3.40;;;25.40;95.80;;;;;;5014402;28;20151;-80
2022/08/04 07:13:31;;;;;;;8.75;3.33;;;25.50;95.50;;;;;;4994246;28;20073;-82
2022/08/04 07:15:58;;;;;;;16.58;4.25;;;25.50;95.10;;;;;;5008956;28;20353;-86
2022/08/04 07:18:25;;;;;;;7.88;2.90;;;25.60;94.90;;;;;;5013165;28;20049;-92
2022/08/04 07:20:51;;;;;;;9.83;3.53;;;25.70;94.20;;;;;;5014154;28;20044;-80
2022/08/04 07:23:24;;;;;;;5.68;2.92;;;25.80;93.90;;;;;;5012763;28;20026;-82
2022/08/04 07:25:51;;;;;;;9.25;2.63;;;25.80;93.40;;;;;;5013995;28;20053;-80
2022/08/04 07:28:18;;;;;;;6.68;2.40;;;25.90;92.60;;;;;;5011752;28;20030;-78
2022/08/04 07:30:45;;;;;;;5.60;2.15;;;26.00;92.40;;;;;;5012184;28;20030;-78
2022/08/04 07:33:12;;;;;;;5.55;2.53;;;26.20;92.10;;;;;;5013162;28;20068;-77
2022/08/04 07:35:38;;;;;;;13.10;3.75;;;26.20;91.80;;;;;;5013320;28;20090;-82
2022/08/04 07:38:04;;;;;;;6.82;2.65;;;26.30;91.80;;;;;;5013248;28;20026;-75
2022/08/04 07:40:31;;;;;;;3.55;2.08;;;26.40;91.80;;;;;;5012714;28;20033;-81
2022/08/04 07:42:58;;;;;;;8.98;2.22;;;26.60;91.30;;;;;;5013506;28;20061;-79
2022/08/04 07:45:24;;;;;;;7.88;2.42;;;26.70;91.10;;;;;;5010429;28;20037;-81
2022/08/04 07:47:50;;;;;;;8.93;2.72;;;26.80;90.20;;;;;;5012849;28;20092;-84
2022/08/04 07:50:16;;;;;;;305.08;227.77;;;27.00;89.00;;;;;;5014514;28;20482;-87
2022/08/04 07:52:44;;;;;;;4.53;2.30;;;27.10;89.70;;;;;;5013238;28;20053;-79
2022/08/04 07:55:10;;;;;;;4.13;2.13;;;27.10;88.70;;;;;;5013085;28;20049;-82
2022/08/04 07:57:36;;;;;;;4.60;1.95;;;27.20;87.40;;;;;;5014983;28;20160;-91
2022/08/04 08:00:04;;;;;;;4.72;2.30;;;27.30;88.30;;;;;;5014159;28;20124;-87
2022/08/04 08:02:30;;;;;;;7.80;2.15;;;27.60;86.60;;;;;;5014578;28;20452;-92
2022/08/04 08:04:56;;;;;;;4.13;1.85;;;27.70;86.00;;;;;;5018108;28;20026;-94
2022/08/04 08:07:22;;;;;;;4.28;2.47;;;27.90;84.40;;;;;;5017174;28;20038;-87
2022/08/04 08:09:49;;;;;;;6.10;3.30;;;28.00;82.80;;;;;;5015600;28;20029;-92
2022/08/04 08:12:15;;;;;;;5.70;2.80;;;28.30;80.80;;;;;;5015358;28;20034;-87
2022/08/04 08:14:41;;;;;;;16.52;11.43;;;28.40;81.10;;;;;;5014567;28;20056;-82
2022/08/04 08:17:07;;;;;;;10.60;8.20;;;28.50;81.80;;;;;;5013731;28;20022;-80
2022/08/04 08:19:34;;;;;;;5.30;2.30;;;28.70;79.80;;;;;;5013559;28;20022;-81
2022/08/04 08:22:00;;;;;;;10.97;2.30;;;29.00;80.00;;;;;;5012827;28;20069;-80
2022/08/04 08:24:32;;;;;;;3.03;2.38;;;29.50;77.90;;;;;;5013006;28;20392;-78
2022/08/04 08:26:59;;;;;;;5.75;2.30;;;30.10;78.70;;;;;;5012947;28;20044;-79
2022/08/04 08:29:25;;;;;;;5.20;2.13;;;30.80;77.70;;;;;;5012870;28;20096;-83
2022/08/04 08:31:52;;;;;;;3.22;2.00;;;31.70;75.80;;;;;;5013460;28;20032;-81
2022/08/04 08:34:18;;;;;;;3.35;1.75;;;32.70;72.70;;;;;;5012484;28;20448;-80
2022/08/04 08:36:58;;;;;;;6.07;2.00;;;33.50;71.80;;;;;;5011411;28;20040;-78
2022/08/04 08:39:39;;;;;;;19.90;3.85;;;34.30;67.10;;;;;;5012428;28;20416;-79
2022/08/04 08:42:42;;;;;;;3.50;2.30;;;35.20;63.90;;;;;;5011544;28;20041;-83
2022/08/04 08:45:30;;;;;;;4.97;2.10;;;36.00;61.40;;;;;;5011744;28;20034;-80
2022/08/04 08:48:29;;;;;;;2.10;1.90;;;36.90;60.00;;;;;;5012840;28;20045;-77
2022/08/04 08:51:06;;;;;;;7.82;3.22;;;37.90;57.60;;;;;;5013162;28;20373;-82
2022/08/04 08:53:53;;;;;;;5.90;2.83;;;38.60;55.60;;;;;;5012398;28;20048;-81
2022/08/04 08:56:25;;;;;;;;;;;39.10;53.00;;;;;;5012365;28;20546;-84
2022/08/04 08:59:07;;;;;;;5.78;2.25;;;39.40;51.10;;;;;;5011430;28;20008;-82
2022/08/04 09:01:58;;;;;;;4.88;2.00;;;39.70;50.30;;;;;;5011961;28;20030;-81
2022/08/04 09:04:35;;;;;;;3.50;2.10;;;40.00;48.70;;;;;;5011079;28;20519;-81
2022/08/04 09:07:28;;;;;;;7.78;1.95;;;40.60;48.70;;;;;;5012081;28;20060;-84
2022/08/04 09:10:11;;;;;;;2.38;2.10;;;40.90;46.20;;;;;;5012923;28;20064;-92
2022/08/04 09:12:58;;;;;;;6.15;2.38;;;41.10;45.30;;;;;;5013758;28;20029;-81
2022/08/04 09:15:43;;;;;;;2.78;1.92;;;41.50;43.70;;;;;;5013294;28;20099;-89
2022/08/04 09:18:18;;;;;;;3.78;2.30;;;41.90;42.60;;;;;;5012017;28;20103;-82
2022/08/04 09:21:16;;;;;;;5.63;2.33;;;41.60;41.90;;;;;;5010761;28;20034;-85
2022/08/04 09:23:54;;;;;;;5.68;2.17;;;41.90;41.50;;;;;;5010648;28;20033;-85
2022/08/04 09:26:32;;;;;;;7.63;2.10;;;42.20;41.80;;;;;;5012397;28;20026;-85
2022/08/04 09:29:15;;;;;;;7.07;2.15;;;42.80;41.20;;;;;;5011385;28;20038;-85
2022/08/04 09:31:56;;;;;;;2.58;2.00;;;43.10;40.60;;;;;;5012567;28;20042;-85
2022/08/04 09:34:39;;;;;;;3.25;2.03;;;43.80;40.20;;;;;;5012254;28;20116;-88
2022/08/04 09:37:25;;;;;;;5.78;2.22;;;43.90;39.10;;;;;;5012310;28;20058;-83
2022/08/04 09:39:53;;;;;;;2.47;1.90;;;44.00;37.40;;;;;;5011791;28;20372;-92
2022/08/04 09:42:49;;;;;;;4.18;2.05;;;44.10;36.70;;;;;;5014006;28;20054;-82
2022/08/04 09:45:25;;;;;;;4.88;2.58;;;44.00;36.70;;;;;;5011269;28;20367;-86
2022/08/04 09:48:05;;;;;;;9.27;2.00;;;43.70;36.80;;;;;;5011805;28;20058;-84
2022/08/04 09:50:38;;;;;;;2.30;2.05;;;43.60;36.70;;;;;;5012908;28;20033;-85
2022/08/04 09:53:19;;;;;;;4.18;2.30;;;43.40;35.80;;;;;;5012161;28;20324;-85
2022/08/04 09:55:45;;;;;;;2.47;2.25;;;43.60;35.90;;;;;;5011885;28;20387;-86
2022/08/04 09:58:43;;;;;;;2.70;2.20;;;44.20;35.60;;;;;;5016418;28;20384;-86
2022/08/04 10:01:15;;;;;;;5.53;2.28;;;44.10;36.00;;;;;;5015991;28;20042;-85
2022/08/04 10:03:47;;;;;;;1.92;1.80;;;43.60;34.00;;;;;;5016004;28;20437;-81
2022/08/04 10:06:35;;;;;;;2.42;2.10;;;43.10;35.20;;;;;;5015328;28;20041;-87
2022/08/04 10:09:19;;;;;;;1.98;1.88;;;43.10;33.00;;;;;;5014645;28;20040;-87
2022/08/04 10:11:56;;;;;;;9.18;2.30;;;43.20;34.90;;;;;;5015681;28;20456;-84
2022/08/04 10:14:52;;;;;;;4.63;1.70;;;43.20;34.00;;;;;;5016139;28;20099;-84
2022/08/04 10:17:33;;;;;;;3.35;2.28;;;42.70;34.70;;;;;;5015424;28;20123;-82
2022/08/04 10:20:26;;;;;;;2.15;2.00;;;42.40;34.90;;;;;;5016403;28;20332;-85
2022/08/04 10:23:10;;;;;;;4.50;1.92;;;41.60;34.00;;;;;;5013285;28;20120;-83
2022/08/04 10:25:53;;;;;;;2.17;1.90;;;41.10;34.80;;;;;;5016577;28;20491;-85
2022/08/04 10:28:22;;;;;;;2.10;1.90;;;40.90;34.80;;;;;;5016494;28;20460;-81
2022/08/04 10:30:59;;;;;;;4.63;2.22;;;40.40;36.00;;;;;;5016495;28;20113;-84
2022/08/04 10:33:38;;;;;;;4.07;1.73;;;40.30;36.20;;;;;;5014889;28;20121;-82
2022/08/04 10:36:10;;;;;;;2.55;2.13;;;40.10;36.00;;;;;;5016475;28;20430;-82
2022/08/04 10:38:43;;;;;;;3.75;2.05;;;39.60;35.90;;;;;;5015178;28;20484;-85
2022/08/04 10:41:46;;;;;;;2.03;1.80;;;39.10;36.70;;;;;;5014575;28;20048;-81
2022/08/04 10:44:39;;;;;;;4.13;2.08;;;38.70;37.50;;;;;;5015638;28;20109;-85
2022/08/04 10:47:15;;;;;;;2.45;1.90;;;38.80;37.80;;;;;;5017226;28;20349;-89
2022/08/04 10:49:53;;;;;;;4.18;2.10;;;38.80;37.30;;;;;;5020032;28;20449;-87
2022/08/04 10:52:54;;;;;;;8.20;3.10;;;38.40;37.90;;;;;;5014505;28;20030;-79
2022/08/04 10:55:35;;;;;;;4.40;2.38;;;38.40;38.40;;;;;;5014207;28;20496;-79
2022/08/04 10:58:04;;;;;;;6.35;2.50;;;38.40;38.60;;;;;;5014509;28;20070;-79
2022/08/04 11:00:34;;;;;;;2.20;2.00;;;38.20;38.20;;;;;;5012925;28;20037;-81
2022/08/04 11:03:21;;;;;;;1.85;1.75;;;37.90;38.00;;;;;;5014186;28;20034;-79
2022/08/04 11:05:55;;;;;;;3.15;1.70;;;37.90;39.00;;;;;;5013679;28;20464;-80
2022/08/04 11:08:44;;;;;;;2.10;1.80;;;37.80;38.70;;;;;;5013379;28;20030;-79
2022/08/04 11:11:24;;;;;;;2.10;1.70;;;37.80;38.50;;;;;;5014095;28;20018;-78
2022/08/04 11:13:57;;;;;;;6.35;2.10;;;37.70;38.20;;;;;;5014770;28;20088;-81
2022/08/04 11:16:50;;;;;;;3.47;2.10;;;37.60;38.10;;;;;;5013798;28;20038;-79
2022/08/04 11:19:31;;;;;;;9.35;1.98;;;37.30;38.20;;;;;;5013232;28;20034;-79
2022/08/04 11:22:13;;;;;;;3.20;2.08;;;37.00;38.80;;;;;;5013001;28;20045;-79
2022/08/04 11:24:47;;;;;;;3.47;2.35;;;36.70;39.20;;;;;;5014446;28;20038;-80
2022/08/04 11:27:47;;;;;;;4.65;2.13;;;36.70;39.20;;;;;;5014016;28;20038;-77
2022/08/04 11:30:14;;;;;;;5.63;1.92;;;36.70;39.70;;;;;;5013868;28;20030;-80
2022/08/04 11:33:04;;;;;;;3.95;2.00;;;36.70;39.40;;;;;;5013884;28;20034;-81
2022/08/04 11:35:57;;;;;;;3.08;1.70;;;36.70;39.80;;;;;;5013969;28;20026;-79
2022/08/04 11:38:54;;;;;;;5.10;2.33;;;36.80;40.00;;;;;;5013792;28;20468;-80
2022/08/04 11:41:36;;;;;;;7.40;3.97;;;36.60;39.80;;;;;;5013829;28;20033;-79
2022/08/04 11:44:04;;;;;;;2.63;2.13;;;36.60;39.40;;;;;;5013820;28;20368;-78
2022/08/04 11:46:30;;;;;;;3.35;1.90;;;36.60;39.70;;;;;;5014316;28;20029;-81
2022/08/04 11:49:02;;;;;;;2.55;1.90;;;36.60;39.90;;;;;;5013304;28;20030;-81
2022/08/04 11:51:30;;;;;;;4.60;1.73;;;36.60;40.10;;;;;;5013776;28;20105;-80
2022/08/04 11:53:56;;;;;;;4.28;1.65;;;36.60;40.10;;;;;;5013889;28;20025;-79
2022/08/04 11:56:21;;;;;;;3.28;1.90;;;36.60;39.80;;;;;;5013326;28;20057;-78
2022/08/04 11:58:47;;;;;;;5.78;1.75;;;36.60;40.30;;;;;;5013399;28;20420;-84
2022/08/04 12:01:16;;;;;;;6.82;2.00;;;36.70;40.30;;;;;;5017193;28;20099;-80
2022/08/04 12:03:59;;;;;;;9.90;2.13;;;36.50;39.40;;;;;;5011948;28;20468;-81
2022/08/04 12:06:54;;;;;;;2.92;2.15;;;36.50;39.60;;;;;;5013552;28;20025;-79
2022/08/04 12:09:47;;;;;;;3.50;2.03;;;36.50;39.80;;;;;;5013584;28;20081;-78
2022/08/04 12:12:26;;;;;;;5.15;1.88;;;36.60;40.00;;;;;;5013297;28;20045;-79
2022/08/04 12:15:15;;;;;;;2.88;1.90;;;36.50;40.10;;;;;;5011779;28;20029;-80
2022/08/04 12:18:01;;;;;;;4.30;3.33;;;36.40;40.10;;;;;;5012856;28;20621;-78
2022/08/04 12:20:30;;;;;;;4.57;2.67;;;36.30;40.10;;;;;;5012048;28;20045;-84
2022/08/04 12:22:56;;;;;;;7.80;2.40;;;36.30;40.50;;;;;;5013888;28;20048;-88
2022/08/04 12:25:33;;;;;;;2.85;1.83;;;36.20;40.70;;;;;;5013690;28;20164;-85
2022/08/04 12:27:59;;;;;;;2.20;2.00;;;36.30;40.50;;;;;;5013114;28;20030;-81
2022/08/04 12:30:29;;;;;;;4.78;2.00;;;36.20;41.10;;;;;;5013041;28;20510;-82
2022/08/04 12:33:00;;;;;;;4.43;2.00;;;36.30;40.80;;;;;;5011912;28;20356;-83
2022/08/04 12:35:34;;;;;;;4.45;2.17;;;36.20;40.60;;;;;;5013004;28;20033;-84
2022/08/04 12:38:13;;;;;;;3.63;1.77;;;36.20;40.30;;;;;;5013573;28;20029;-84
2022/08/04 12:40:45;;;;;;;1.92;1.50;;;36.10;40.00;;;;;;5012666;28;20228;-84
2022/08/04 12:43:30;;;;;;;4.13;1.65;;;36.20;39.50;;;;;;5013543;28;20477;-83
2022/08/04 12:46:01;;;;;;;2.33;2.08;;;36.10;39.80;;;;;;5013856;28;20030;-85
2022/08/04 12:48:31;;;;;;;3.65;1.65;;;36.00;40.00;;;;;;5014549;28;20034;-86
2022/08/04 12:50:57;;;;;;;2.70;1.55;;;36.10;39.70;;;;;;5013426;28;20041;-85
2022/08/04 12:53:31;;;;;;;2.10;1.88;;;36.10;39.70;;;;;;5012777;28;20045;-83
2022/08/04 12:55:58;;;;;;;3.95;1.88;;;36.10;39.70;;;;;;5012971;28;20116;-84
2022/08/04 12:58:26;;;;;;;;;;;36.20;40.50;;;;;;5012744;28;20524;-85
2022/08/04 13:01:16;;;;;;;3.22;1.58;;;36.20;39.90;;;;;;5011943;28;19924;-81
2022/08/04 13:03:58;;;;;;;1.85;1.63;;;36.20;39.70;;;;;;5011544;28;20030;-84
2022/08/04 13:06:33;;;;;;;2.42;1.83;;;36.20;39.30;;;;;;5012382;28;20030;-82
2022/08/04 13:09:19;;;;;;;2.80;1.50;;;36.20;40.00;;;;;;5012752;28;20037;-85
2022/08/04 13:12:01;;;;;;;4.73;1.60;;;36.20;40.20;;;;;;5013392;28;20022;-81
2022/08/04 13:14:34;;;;;;;6.78;2.08;;;36.00;40.30;;;;;;5016277;28;20026;-83
2022/08/04 13:17:00;;;;;;;3.13;2.15;;;36.00;39.70;;;;;;5013371;28;20452;-80
2022/08/04 13:19:28;;;;;;;5.95;1.88;;;35.90;39.80;;;;;;5011892;28;20150;-81
2022/08/04 13:21:56;;;;;;;2.05;1.90;;;35.80;39.90;;;;;;5012178;28;20515;-83
2022/08/04 13:24:24;;;;;;;14.25;2.42;;;35.70;40.30;;;;;;5011642;28;20463;-82
2022/08/04 13:27:12;;;;;;;6.93;2.72;;;35.60;40.50;;;;;;5012157;28;20068;-81
2022/08/04 13:29:43;;;;;;;3.08;1.80;;;35.40;41.00;;;;;;5011256;28;20026;-83
2022/08/04 13:32:14;;;;;;;5.28;2.00;;;35.40;41.50;;;;;;5012207;28;20056;-83
2022/08/04 13:34:42;;;;;;;1.95;1.70;;;35.40;41.30;;;;;;5012847;28;20053;-82
2022/08/04 13:37:09;;;;;;;9.60;2.08;;;35.40;41.60;;;;;;5013478;28;20557;-84